EHRD/RTM METAR and TAF weather

Enter ICAO airport designator
Station Type Date Time Source
EHRD METAR 2021/03/05 13:25 UTC NOAA

EHRD 051325Z AUTO 03009KT 350V070 9999 BKN045 06/M03 Q1031 NOSIG


Station Type Date Time Source
EHRD Decoded METAR 2021/03/05 13:25 UTC NOAA

Rotterdam Airport Zestienhoven, Netherlands (EHRD) 51-57N 004-27E -4M
Mar 05, 2021 - 08:25 AM EST / 2021.03.05 1325 UTC
Wind: from the NNE (030 degrees) at 10 MPH (9 KT) (direction variable):0
Visibility: greater than 7 mile(s):0
Sky conditions: mostly cloudy
Temperature: 42 F (6 C)
Dew Point: 26 F (-3 C)
Relative Humidity: 52%
Pressure (altimeter): 30.45 in. Hg (1031 hPa)
ob: EHRD 051325Z AUTO 03009KT 350V070 9999 BKN045 06/M03 Q1031 NOSIG
cycle: 13

Station Type Date Time Source
EHRD TAF 2021/03/05 12:27 UTC NOAA

TAF EHRD 051048Z 0512/0618 02007KT 9999 FEW040

Example: see airport list